sensor_id;sensor_type;location;lat;lon;timestamp;pressure;altitude;pressure_sealevel;temperature;humidity
52949;BME280;38812;50.942;3.644;2023-03-04T00:02:12;102745.06;;;4.83;100.00
52949;BME280;38812;50.942;3.644;2023-03-04T00:04:37;102734.34;;;4.73;100.00
52949;BME280;38812;50.942;3.644;2023-03-04T00:07:02;102736.03;;;4.72;100.00
52949;BME280;38812;50.942;3.644;2023-03-04T00:09:28;102749.19;;;4.77;100.00
52949;BME280;38812;50.942;3.644;2023-03-04T00:11:53;102763.34;;;4.85;100.00
52949;BME280;38812;50.942;3.644;2023-03-04T00:14:19;102753.63;;;4.79;100.00
52949;BME280;38812;50.942;3.644;2023-03-04T00:16:44;102756.53;;;4.89;100.00
52949;BME280;38812;50.942;3.644;2023-03-04T00:19:10;102747.88;;;4.90;100.00
52949;BME280;38812;50.942;3.644;2023-03-04T00:21:35;102749.88;;;4.98;100.00
52949;BME280;38812;50.942;3.644;2023-03-04T00:24:01;102749.72;;;4.92;100.00
52949;BME280;38812;50.942;3.644;2023-03-04T00:26:26;102753.25;;;4.94;100.00
52949;BME280;38812;50.942;3.644;2023-03-04T00:28:51;102752.50;;;4.98;100.00
52949;BME280;38812;50.942;3.644;2023-03-04T00:31:17;102756.78;;;4.96;100.00
52949;BME280;38812;50.942;3.644;2023-03-04T00:33:42;102756.88;;;4.99;100.00
52949;BME280;38812;50.942;3.644;2023-03-04T00:36:09;102743.56;;;4.90;100.00
52949;BME280;38812;50.942;3.644;2023-03-04T00:38:34;102740.75;;;4.84;100.00
52949;BME280;38812;50.942;3.644;2023-03-04T00:41:00;102746.31;;;4.95;100.00
52949;BME280;38812;50.942;3.644;2023-03-04T00:43:25;102747.94;;;4.91;100.00
52949;BME280;38812;50.942;3.644;2023-03-04T00:45:51;102747.00;;;4.89;100.00
52949;BME280;38812;50.942;3.644;2023-03-04T00:48:16;102741.78;;;4.89;100.00
52949;BME280;38812;50.942;3.644;2023-03-04T00:50:42;102739.00;;;4.83;100.00
52949;BME280;38812;50.942;3.644;2023-03-04T00:53:08;102738.16;;;4.84;100.00
52949;BME280;38812;50.942;3.644;2023-03-04T00:55:34;102737.13;;;4.79;100.00
52949;BME280;38812;50.942;3.644;2023-03-04T00:57:59;102742.25;;;4.76;100.00
52949;BME280;38812;50.942;3.644;2023-03-04T01:00:25;102738.88;;;4.80;100.00
52949;BME280;38812;50.942;3.644;2023-03-04T01:02:50;102740.47;;;4.75;100.00
52949;BME280;38812;50.942;3.644;2023-03-04T01:05:16;102743.97;;;4.75;100.00
52949;BME280;38812;50.942;3.644;2023-03-04T01:07:41;102748.31;;;4.76;100.00
52949;BME280;38812;50.942;3.644;2023-03-04T01:10:10;102734.28;;;4.71;100.00
52949;BME280;38812;50.942;3.644;2023-03-04T01:12:36;102745.56;;;4.72;100.00
52949;BME280;38812;50.942;3.644;2023-03-04T01:15:02;102737.59;;;4.67;100.00
52949;BME280;38812;50.942;3.644;2023-03-04T01:17:28;102736.66;;;4.65;100.00
52949;BME280;38812;50.942;3.644;2023-03-04T01:19:53;102742.72;;;4.64;100.00
52949;BME280;38812;50.942;3.644;2023-03-04T01:22:19;102735.72;;;4.63;100.00
52949;BME280;38812;50.942;3.644;2023-03-04T01:24:45;102736.50;;;4.61;100.00
52949;BME280;38812;50.942;3.644;2023-03-04T01:27:10;102735.78;;;4.65;100.00
52949;BME280;38812;50.942;3.644;2023-03-04T01:29:36;102733.06;;;4.62;100.00
52949;BME280;38812;50.942;3.644;2023-03-04T01:32:01;102733.06;;;4.62;100.00
52949;BME280;38812;50.942;3.644;2023-03-04T01:34:27;102724.31;;;4.60;100.00
52949;BME280;38812;50.942;3.644;2023-03-04T01:36:52;102722.66;;;4.62;100.00
52949;BME280;38812;50.942;3.644;2023-03-04T01:39:18;102717.34;;;4.59;100.00
52949;BME280;38812;50.942;3.644;2023-03-04T01:41:43;102724.38;;;4.61;100.00
52949;BME280;38812;50.942;3.644;2023-03-04T01:44:10;102717.34;;;4.59;100.00
52949;BME280;38812;50.942;3.644;2023-03-04T01:46:36;102712.13;;;4.59;100.00
52949;BME280;38812;50.942;3.644;2023-03-04T01:49:02;102704.22;;;4.56;100.00
52949;BME280;38812;50.942;3.644;2023-03-04T01:51:28;102706.28;;;4.91;100.00
52949;BME280;38812;50.942;3.644;2023-03-04T01:53:54;102704.09;;;4.78;100.00
52949;BME280;38812;50.942;3.644;2023-03-04T01:56:25;102701.53;;;4.79;100.00
52949;BME280;38812;50.942;3.644;2023-03-04T01:59:08;102699.09;;;4.84;100.00
52949;BME280;38812;50.942;3.644;2023-03-04T02:01:34;102690.34;;;4.82;100.00
52949;BME280;38812;50.942;3.644;2023-03-04T02:04:00;102691.38;;;4.87;100.00
52949;BME280;38812;50.942;3.644;2023-03-04T02:06:25;102691.38;;;4.87;100.00
52949;BME280;38812;50.942;3.644;2023-03-04T02:08:51;102685.22;;;4.85;100.00
52949;BME280;38812;50.942;3.644;2023-03-04T02:11:16;102674.63;;;4.79;100.00
52949;BME280;38812;50.942;3.644;2023-03-04T02:13:42;102674.13;;;4.91;100.00
52949;BME280;38812;50.942;3.644;2023-03-04T02:16:07;102667.78;;;4.82;100.00
52949;BME280;38812;50.942;3.644;2023-03-04T02:18:33;102672.47;;;4.93;100.00
52949;BME280;38812;50.942;3.644;2023-03-04T02:23:43;102664.59;;;4.91;100.00
52949;BME280;38812;50.942;3.644;2023-03-04T02:26:21;102667.09;;;4.88;100.00
52949;BME280;38812;50.942;3.644;2023-03-04T02:28:49;102650.34;;;4.80;100.00
52949;BME280;38812;50.942;3.644;2023-03-04T02:31:35;102659.25;;;4.87;100.00
52949;BME280;38812;50.942;3.644;2023-03-04T02:34:29;102655.75;;;4.86;100.00
52949;BME280;38812;50.942;3.644;2023-03-04T02:36:53;102656.59;;;4.85;100.00
52949;BME280;38812;50.942;3.644;2023-03-04T02:41:45;102647.94;;;4.86;100.00
52949;BME280;38812;50.942;3.644;2023-03-04T02:44:16;102647.94;;;4.86;100.00
52949;BME280;38812;50.942;3.644;2023-03-04T02:46:43;102655.03;;;4.90;100.00
52949;BME280;38812;50.942;3.644;2023-03-04T02:49:08;102649.44;;;5.06;100.00
52949;BME280;38812;50.942;3.644;2023-03-04T02:51:33;102652.69;;;4.99;100.00
52949;BME280;38812;50.942;3.644;2023-03-04T02:53:59;102645.25;;;5.11;100.00
52949;BME280;38812;50.942;3.644;2023-03-04T02:56:24;102644.22;;;5.06;100.00
52949;BME280;38812;50.942;3.644;2023-03-04T02:58:49;102651.88;;;5.02;100.00
52949;BME280;38812;50.942;3.644;2023-03-04T03:01:15;102643.97;;;4.99;100.00
52949;BME280;38812;50.942;3.644;2023-03-04T03:03:40;102647.56;;;5.02;100.00
52949;BME280;38812;50.942;3.644;2023-03-04T03:06:06;102630.78;;;4.93;100.00
52949;BME280;38812;50.942;3.644;2023-03-04T03:08:31;102646.72;;;5.03;100.00
52949;BME280;38812;50.942;3.644;2023-03-04T03:10:57;102650.38;;;5.08;100.00
52949;BME280;38812;50.942;3.644;2023-03-04T03:13:22;102641.56;;;5.05;100.00
52949;BME280;38812;50.942;3.644;2023-03-04T03:15:49;102649.63;;;5.12;100.00
52949;BME280;38812;50.942;3.644;2023-03-04T03:18:14;102641.63;;;5.06;100.00
52949;BME280;38812;50.942;3.644;2023-03-04T03:20:40;102631.28;;;5.09;100.00
52949;BME280;38812;50.942;3.644;2023-03-04T03:23:06;102652.28;;;5.14;100.00
52949;BME280;38812;50.942;3.644;2023-03-04T03:25:31;102642.56;;;5.08;100.00
52949;BME280;38812;50.942;3.644;2023-03-04T03:27:57;102644.31;;;5.09;100.00
52949;BME280;38812;50.942;3.644;2023-03-04T03:30:22;102653.06;;;5.11;100.00
52949;BME280;38812;50.942;3.644;2023-03-04T03:32:48;102651.41;;;5.13;100.00
52949;BME280;38812;50.942;3.644;2023-03-04T03:35:13;102630.97;;;4.99;100.00
52949;BME280;38812;50.942;3.644;2023-03-04T03:37:39;102652.19;;;5.11;100.00
52949;BME280;38812;50.942;3.644;2023-03-04T03:40:04;102654.78;;;5.11;100.00
52949;BME280;38812;50.942;3.644;2023-03-04T03:42:30;102652.53;;;5.23;100.00
52949;BME280;38812;50.942;3.644;2023-03-04T03:44:55;102658.47;;;5.18;100.00
52949;BME280;38812;50.942;3.644;2023-03-04T03:47:21;102653.81;;;5.07;100.00
52949;BME280;38812;50.942;3.644;2023-03-04T03:49:46;102659.41;;;5.20;100.00
52949;BME280;38812;50.942;3.644;2023-03-04T03:52:12;102657.50;;;5.14;100.00
52949;BME280;38812;50.942;3.644;2023-03-04T03:54:38;102653.13;;;5.13;100.00
52949;BME280;38812;50.942;3.644;2023-03-04T03:57:03;102652.97;;;5.08;100.00
52949;BME280;38812;50.942;3.644;2023-03-04T03:59:28;102663.38;;;5.08;100.00
52949;BME280;38812;50.942;3.644;2023-03-04T04:01:54;102642.84;;;5.18;100.00
52949;BME280;38812;50.942;3.644;2023-03-04T04:04:19;102637.34;;;5.08;100.00
52949;BME280;38812;50.942;3.644;2023-03-04T04:06:45;102637.16;;;5.02;100.00
52949;BME280;38812;50.942;3.644;2023-03-04T04:09:10;102651.84;;;5.00;100.00
52949;BME280;38812;50.942;3.644;2023-03-04T04:11:36;102657.94;;;5.01;100.00
52949;BME280;38812;50.942;3.644;2023-03-04T04:14:01;102649.16;;;4.97;100.00
52949;BME280;38812;50.942;3.644;2023-03-04T04:16:26;102660.94;;;5.13;100.00
52949;BME280;38812;50.942;3.644;2023-03-04T04:18:52;102642.66;;;5.11;100.00
52949;BME280;38812;50.942;3.644;2023-03-04T04:21:17;102640.69;;;5.04;100.00
52949;BME280;38812;50.942;3.644;2023-03-04T04:23:43;102639.63;;;4.98;100.00
52949;BME280;38812;50.942;3.644;2023-03-04T04:26:08;102639.00;;;5.06;100.00
52949;BME280;38812;50.942;3.644;2023-03-04T04:28:33;102638.13;;;5.06;100.00
52949;BME280;38812;50.942;3.644;2023-03-04T04:30:59;102644.22;;;5.06;100.00
52949;BME280;38812;50.942;3.644;2023-03-04T04:33:25;102639.09;;;5.09;100.00
52949;BME280;38812;50.942;3.644;2023-03-04T04:35:50;102646.00;;;5.07;100.00
52949;BME280;38812;50.942;3.644;2023-03-04T04:38:15;102639.84;;;5.05;100.00
52949;BME280;38812;50.942;3.644;2023-03-04T04:40:41;102657.75;;;5.23;100.00
52949;BME280;38812;50.942;3.644;2023-03-04T04:43:07;102658.41;;;5.16;100.00
52949;BME280;38812;50.942;3.644;2023-03-04T04:45:33;102666.34;;;5.19;100.00
52949;BME280;38812;50.942;3.644;2023-03-04T04:47:58;102664.28;;;5.09;100.00
52949;BME280;38812;50.942;3.644;2023-03-04T04:50:24;102657.25;;;5.06;100.00
52949;BME280;38812;50.942;3.644;2023-03-04T04:52:51;102658.00;;;5.02;100.00
52949;BME280;38812;50.942;3.644;2023-03-04T04:55:16;102654.84;;;5.12;100.00
52949;BME280;38812;50.942;3.644;2023-03-04T04:57:42;102662.69;;;5.14;100.00
52949;BME280;38812;50.942;3.644;2023-03-04T05:00:08;102662.41;;;5.05;100.00
52949;BME280;38812;50.942;3.644;2023-03-04T05:02:35;102669.69;;;5.15;100.00
52949;BME280;38812;50.942;3.644;2023-03-04T05:05:02;102661.44;;;5.01;100.00
52949;BME280;38812;50.942;3.644;2023-03-04T05:07:28;102656.13;;;4.98;100.00
52949;BME280;38812;50.942;3.644;2023-03-04T05:09:53;102654.22;;;4.93;100.00
52949;BME280;38812;50.942;3.644;2023-03-04T05:12:19;102664.69;;;4.94;100.00
52949;BME280;38812;50.942;3.644;2023-03-04T05:14:44;102663.78;;;4.92;100.00
52949;BME280;38812;50.942;3.644;2023-03-04T05:17:09;102665.53;;;4.93;100.00
52949;BME280;38812;50.942;3.644;2023-03-04T05:19:35;102653.06;;;4.83;100.00
52949;BME280;38812;50.942;3.644;2023-03-04T05:22:00;102663.03;;;4.96;100.00
52949;BME280;38812;50.942;3.644;2023-03-04T05:24:25;102659.41;;;4.91;100.00
52949;BME280;38812;50.942;3.644;2023-03-04T05:26:51;102656.63;;;4.87;100.00
52949;BME280;38812;50.942;3.644;2023-03-04T05:29:16;102647.78;;;4.81;100.00
52949;BME280;38812;50.942;3.644;2023-03-04T05:31:42;102659.09;;;4.82;100.00
52949;BME280;38812;50.942;3.644;2023-03-04T05:34:08;102658.22;;;4.81;100.00
52949;BME280;38812;50.942;3.644;2023-03-04T05:36:33;102657.44;;;4.84;100.00
52949;BME280;38812;50.942;3.644;2023-03-04T05:38:59;102656.16;;;5.00;100.00
52949;BME280;38812;50.942;3.644;2023-03-04T05:41:24;102648.44;;;5.03;100.00
52949;BME280;38812;50.942;3.644;2023-03-04T05:43:50;102653.72;;;5.04;100.00
52949;BME280;38812;50.942;3.644;2023-03-04T05:46:16;102662.22;;;4.99;100.00
52949;BME280;38812;50.942;3.644;2023-03-04T05:48:43;102661.16;;;4.92;100.00
52949;BME280;38812;50.942;3.644;2023-03-04T05:51:09;102664.59;;;4.91;100.00
52949;BME280;38812;50.942;3.644;2023-03-04T05:53:35;102662.03;;;4.93;100.00
52949;BME280;38812;50.942;3.644;2023-03-04T05:56:15;102663.72;;;4.91;100.00
52949;BME280;38812;50.942;3.644;2023-03-04T05:58:41;102660.38;;;4.95;100.00
52949;BME280;38812;50.942;3.644;2023-03-04T06:01:06;102655.06;;;4.92;100.00
52949;BME280;38812;50.942;3.644;2023-03-04T06:03:32;102663.09;;;4.99;100.00
52949;BME280;38812;50.942;3.644;2023-03-04T06:05:57;102665.63;;;4.96;100.00
52949;BME280;38812;50.942;3.644;2023-03-04T06:08:23;102666.38;;;4.92;100.00
52949;BME280;38812;50.942;3.644;2023-03-04T06:10:51;102668.25;;;4.96;100.00
52949;BME280;38812;50.942;3.644;2023-03-04T06:13:17;102669.19;;;5.00;100.00
52949;BME280;38812;50.942;3.644;2023-03-04T06:15:43;102660.38;;;4.95;100.00
52949;BME280;38812;50.942;3.644;2023-03-04T06:18:08;102660.38;;;4.95;100.00
52949;BME280;38812;50.942;3.644;2023-03-04T06:20:34;102670.06;;;5.00;100.00
52949;BME280;38812;50.942;3.644;2023-03-04T06:22:59;102670.13;;;5.02;100.00
52949;BME280;38812;50.942;3.644;2023-03-04T06:25:25;102657.63;;;4.90;100.00
52949;BME280;38812;50.942;3.644;2023-03-04T06:27:51;102671.75;;;4.98;100.00
52949;BME280;38812;50.942;3.644;2023-03-04T06:30:17;102674.44;;;5.01;100.00
52949;BME280;38812;50.942;3.644;2023-03-04T06:32:42;102667.91;;;5.14;100.00
52949;BME280;38812;50.942;3.644;2023-03-04T06:35:13;102673.91;;;5.11;100.00
52949;BME280;38812;50.942;3.644;2023-03-04T06:37:39;102680.00;;;5.12;100.00
52949;BME280;38812;50.942;3.644;2023-03-04T06:40:05;102682.19;;;5.27;100.00
52949;BME280;38812;50.942;3.644;2023-03-04T06:42:32;102679.94;;;5.10;100.00
52949;BME280;38812;50.942;3.644;2023-03-04T06:44:58;102681.78;;;5.13;100.00
52949;BME280;38812;50.942;3.644;2023-03-04T06:47:23;102693.81;;;5.09;100.00
52949;BME280;38812;50.942;3.644;2023-03-04T06:49:49;102674.69;;;5.09;100.00
52949;BME280;38812;50.942;3.644;2023-03-04T06:52:14;102689.34;;;5.05;100.00
52949;BME280;38812;50.942;3.644;2023-03-04T06:54:39;102688.47;;;5.05;100.00
52949;BME280;38812;50.942;3.644;2023-03-04T06:57:05;102694.84;;;5.14;100.00
52949;BME280;38812;50.942;3.644;2023-03-04T06:59:31;102699.06;;;5.11;100.00
52949;BME280;38812;50.942;3.644;2023-03-04T07:01:56;102691.84;;;5.02;100.00
52949;BME280;38812;50.942;3.644;2023-03-04T07:04:22;102701.53;;;5.06;100.00
52949;BME280;38812;50.942;3.644;2023-03-04T07:06:48;102705.16;;;5.11;100.00
52949;BME280;38812;50.942;3.644;2023-03-04T07:09:14;102701.34;;;5.00;100.00
52949;BME280;38812;50.942;3.644;2023-03-04T07:11:39;102717.06;;;5.03;100.00
52949;BME280;38812;50.942;3.644;2023-03-04T07:14:05;102712.06;;;5.09;100.00
52949;BME280;38812;50.942;3.644;2023-03-04T07:16:30;102709.91;;;4.96;100.00
52949;BME280;38812;50.942;3.644;2023-03-04T07:18:55;102728.09;;;4.95;100.00
52949;BME280;38812;50.942;3.644;2023-03-04T07:21:21;102729.06;;;4.98;100.00
52949;BME280;38812;50.942;3.644;2023-03-04T07:23:46;102728.25;;;5.01;100.00
52949;BME280;38812;50.942;3.644;2023-03-04T07:26:12;102732.31;;;5.18;100.00
52949;BME280;38812;50.942;3.644;2023-03-04T07:28:37;102727.63;;;5.08;100.00
52949;BME280;38812;50.942;3.644;2023-03-04T07:33:46;102746.13;;;5.15;100.00
52949;BME280;38812;50.942;3.644;2023-03-04T07:36:12;102739.34;;;5.22;100.00
52949;BME280;38812;50.942;3.644;2023-03-04T07:38:42;102741.19;;;5.25;100.00
52949;BME280;38812;50.942;3.644;2023-03-04T07:41:07;102740.34;;;5.26;100.00
52949;BME280;38812;50.942;3.644;2023-03-04T07:43:33;102746.25;;;5.20;100.00
52949;BME280;38812;50.942;3.644;2023-03-04T07:46:00;102744.41;;;5.16;100.00
52949;BME280;38812;50.942;3.644;2023-03-04T07:48:26;102746.13;;;5.15;100.00
52949;BME280;38812;50.942;3.644;2023-03-04T07:51:11;102752.22;;;5.16;100.00
52949;BME280;38812;50.942;3.644;2023-03-04T07:53:39;102752.44;;;5.24;100.00
52949;BME280;38812;50.942;3.644;2023-03-04T07:56:06;102755.97;;;5.26;100.00
52949;BME280;38812;50.942;3.644;2023-03-04T07:58:32;102763.06;;;5.30;100.00
52949;BME280;38812;50.942;3.644;2023-03-04T08:00:58;102762.97;;;5.27;100.00
52949;BME280;38812;50.942;3.644;2023-03-04T08:03:23;102756.66;;;5.20;100.00
52949;BME280;38812;50.942;3.644;2023-03-04T08:05:49;102756.19;;;5.32;100.00
52949;BME280;38812;50.942;3.644;2023-03-04T08:08:15;102752.50;;;5.25;100.00
52949;BME280;38812;50.942;3.644;2023-03-04T08:10:40;102757.06;;;5.32;100.00
52949;BME280;38812;50.942;3.644;2023-03-04T08:13:06;102763.06;;;5.30;100.00
52949;BME280;38812;50.942;3.644;2023-03-04T08:15:32;102752.84;;;5.36;100.00
52949;BME280;38812;50.942;3.644;2023-03-04T08:18:00;102759.72;;;5.34;100.00
52949;BME280;38812;50.942;3.644;2023-03-04T08:20:26;102758.88;;;5.35;100.00
52949;BME280;38812;50.942;3.644;2023-03-04T08:22:51;102749.50;;;5.40;100.00
52949;BME280;38812;50.942;3.644;2023-03-04T08:25:17;102754.97;;;5.49;100.00
52949;BME280;38812;50.942;3.644;2023-03-04T08:27:42;102748.16;;;5.54;100.00
52949;BME280;38812;50.942;3.644;2023-03-04T08:30:08;102750.28;;;5.67;100.00
52949;BME280;38812;50.942;3.644;2023-03-04T08:32:34;102753.72;;;5.66;100.00
52949;BME280;38812;50.942;3.644;2023-03-04T08:35:00;102748.41;;;5.63;100.00
52949;BME280;38812;50.942;3.644;2023-03-04T08:37:28;102739.94;;;5.70;100.00
52949;BME280;38812;50.942;3.644;2023-03-04T08:39:53;102752.91;;;5.67;100.00
52949;BME280;38812;50.942;3.644;2023-03-04T08:42:19;102762.47;;;5.68;100.00
52949;BME280;38812;50.942;3.644;2023-03-04T08:44:44;102762.06;;;5.83;100.00
52949;BME280;38812;50.942;3.644;2023-03-04T08:47:10;102765.78;;;5.91;100.00
52949;BME280;38812;50.942;3.644;2023-03-04T08:49:36;102764.91;;;5.91;100.00
52949;BME280;38812;50.942;3.644;2023-03-04T08:52:02;102773.66;;;5.93;100.00
52949;BME280;38812;50.942;3.644;2023-03-04T08:54:27;102771.06;;;5.93;100.00
52949;BME280;38812;50.942;3.644;2023-03-04T08:56:53;102767.06;;;5.75;100.00
52949;BME280;38812;50.942;3.644;2023-03-04T08:59:18;102770.53;;;5.76;100.00
52949;BME280;38812;50.942;3.644;2023-03-04T09:01:43;102767.97;;;5.77;100.00
52949;BME280;38812;50.942;3.644;2023-03-04T09:04:09;102768.34;;;5.90;100.00
52949;BME280;38812;50.942;3.644;2023-03-04T09:06:34;102750.19;;;5.64;100.00
52949;BME280;38812;50.942;3.644;2023-03-04T09:09:00;102758.50;;;5.79;100.00
52949;BME280;38812;50.942;3.644;2023-03-04T09:11:25;102746.66;;;5.91;100.00
52949;BME280;38812;50.942;3.644;2023-03-04T09:13:51;102757.63;;;6.10;100.00
52949;BME280;38812;50.942;3.644;2023-03-04T09:16:16;102757.34;;;6.00;100.00
52949;BME280;38812;50.942;3.644;2023-03-04T09:18:42;102745.34;;;6.05;100.00
52949;BME280;38812;50.942;3.644;2023-03-04T09:21:08;102752.88;;;6.26;100.00
52949;BME280;38812;50.942;3.644;2023-03-04T09:23:34;102751.13;;;6.26;100.00
52949;BME280;38812;50.942;3.644;2023-03-04T09:26:00;102741.53;;;6.25;100.00
52949;BME280;38812;50.942;3.644;2023-03-04T09:28:25;102742.47;;;6.29;100.00
52949;BME280;38812;50.942;3.644;2023-03-04T09:30:51;102752.63;;;6.49;100.00
52949;BME280;38812;50.942;3.644;2023-03-04T09:33:17;102759.53;;;6.47;100.00
52949;BME280;38812;50.942;3.644;2023-03-04T09:35:42;102764.69;;;6.44;100.00
52949;BME280;38812;50.942;3.644;2023-03-04T09:38:09;102754.00;;;6.37;100.00
52949;BME280;38812;50.942;3.644;2023-03-04T09:40:41;102757.16;;;6.57;100.00
52949;BME280;38812;50.942;3.644;2023-03-04T09:43:21;102759.75;;;6.57;100.00
52949;BME280;38812;50.942;3.644;2023-03-04T09:45:52;102761.69;;;6.64;100.00
52949;BME280;38812;50.942;3.644;2023-03-04T09:48:24;102759.66;;;6.53;100.00
52949;BME280;38812;50.942;3.644;2023-03-04T09:51:16;102759.59;;;6.17;100.00
52949;BME280;38812;50.942;3.644;2023-03-04T09:56:37;102758.88;;;6.23;100.00
52949;BME280;38812;50.942;3.644;2023-03-04T09:59:12;102749.94;;;6.46;100.00
52949;BME280;38812;50.942;3.644;2023-03-04T10:01:59;102748.97;;;6.77;100.00
52949;BME280;38812;50.942;3.644;2023-03-04T10:04:38;102742.97;;;6.81;100.00
52949;BME280;38812;50.942;3.644;2023-03-04T10:07:12;102740.59;;;6.91;100.00
52949;BME280;38812;50.942;3.644;2023-03-04T10:12:15;102738.56;;;6.79;100.00
52949;BME280;38812;50.942;3.644;2023-03-04T10:14:47;102731.88;;;6.90;100.00
52949;BME280;38812;50.942;3.644;2023-03-04T10:17:39;102740.97;;;7.06;100.00
52949;BME280;38812;50.942;3.644;2023-03-04T10:20:15;102750.16;;;6.90;100.00
52949;BME280;38812;50.942;3.644;2023-03-04T10:22:45;102753.47;;;6.83;100.00
52949;BME280;38812;50.942;3.644;2023-03-04T10:25:21;102752.38;;;6.75;100.00
52949;BME280;38812;50.942;3.644;2023-03-04T10:28:03;102746.31;;;6.76;100.00
52949;BME280;38812;50.942;3.644;2023-03-04T10:33:19;102738.56;;;6.79;100.00
52949;BME280;38812;50.942;3.644;2023-03-04T10:35:52;102749.63;;;7.05;100.00
52949;BME280;38812;50.942;3.644;2023-03-04T10:38:22;102744.94;;;7.28;100.00
52949;BME280;38812;50.942;3.644;2023-03-04T10:40:47;102750.28;;;7.32;100.00
52949;BME280;38812;50.942;3.644;2023-03-04T10:43:15;102739.75;;;6.92;100.00
52949;BME280;38812;50.942;3.644;2023-03-04T10:45:41;102738.53;;;7.13;100.00
52949;BME280;38812;50.942;3.644;2023-03-04T10:48:17;102737.75;;;6.81;100.00
52949;BME280;38812;50.942;3.644;2023-03-04T10:50:43;102742.94;;;6.80;100.00
52949;BME280;38812;50.942;3.644;2023-03-04T10:53:27;102738.66;;;7.19;100.00
52949;BME280;38812;50.942;3.644;2023-03-04T10:55:54;102733.31;;;7.52;100.00
52949;BME280;38812;50.942;3.644;2023-03-04T10:58:20;102727.41;;;7.63;100.00
52949;BME280;38812;50.942;3.644;2023-03-04T11:01:09;102730.56;;;7.88;100.00
52949;BME280;38812;50.942;3.644;2023-03-04T11:03:46;102718.13;;;7.77;100.00
52949;BME280;38812;50.942;3.644;2023-03-04T11:06:19;102727.44;;;7.64;100.00
52949;BME280;38812;50.942;3.644;2023-03-04T11:08:53;102733.38;;;7.98;100.00
52949;BME280;38812;50.942;3.644;2023-03-04T11:13:58;102723.38;;;7.38;100.00
52949;BME280;38812;50.942;3.644;2023-03-04T11:16:29;102719.25;;;7.08;100.00
52949;BME280;38812;50.942;3.644;2023-03-04T11:19:03;102707.09;;;7.10;100.00
52949;BME280;38812;50.942;3.644;2023-03-04T11:21:33;102713.69;;;7.32;100.00
52949;BME280;38812;50.942;3.644;2023-03-04T11:24:03;102716.50;;;7.43;100.00
52949;BME280;38812;50.942;3.644;2023-03-04T11:26:35;102694.09;;;7.15;100.00
52949;BME280;38812;50.942;3.644;2023-03-04T11:32:05;102705.59;;;8.06;100.00
52949;BME280;38812;50.942;3.644;2023-03-04T11:37:14;102692.34;;;8.43;100.00
52949;BME280;38812;50.942;3.644;2023-03-04T11:39:48;102693.56;;;8.15;100.00
52949;BME280;38812;50.942;3.644;2023-03-04T11:44:48;102680.59;;;8.73;100.00
52949;BME280;38812;50.942;3.644;2023-03-04T11:55:30;102673.59;;;9.31;100.00
52949;BME280;38812;50.942;3.644;2023-03-04T12:33:23;102625.91;;;8.38;100.00
52949;BME280;38812;50.942;3.644;2023-03-04T12:36:02;102636.84;;;8.69;100.00
52949;BME280;38812;50.942;3.644;2023-03-04T12:43:50;102617.63;;;8.68;100.00
52949;BME280;38812;50.942;3.644;2023-03-04T12:54:39;102600.06;;;8.59;100.00
52949;BME280;38812;50.942;3.644;2023-03-04T12:59:38;102601.59;;;8.47;100.00
52949;BME280;38812;50.942;3.644;2023-03-04T13:07:54;102599.09;;;8.54;100.00
52949;BME280;38812;50.942;3.644;2023-03-04T13:10:22;102588.59;;;8.53;100.00
52949;BME280;38812;50.942;3.644;2023-03-04T13:13:00;102589.53;;;8.56;100.00
52949;BME280;38812;50.942;3.644;2023-03-04T13:15:32;102593.16;;;8.65;100.00
52949;BME280;38812;50.942;3.644;2023-03-04T13:18:02;102590.44;;;8.58;100.00
52949;BME280;38812;50.942;3.644;2023-03-04T13:22:56;102574.00;;;8.72;100.00
52949;BME280;38812;50.942;3.644;2023-03-04T13:43:52;102569.56;;;8.65;100.00
52949;BME280;38812;50.942;3.644;2023-03-04T13:49:03;102557.78;;;8.35;100.00
52949;BME280;38812;50.942;3.644;2023-03-04T13:59:12;102549.88;;;7.82;100.00
52949;BME280;38812;50.942;3.644;2023-03-04T14:04:17;102560.06;;;7.67;100.00
52949;BME280;38812;50.942;3.644;2023-03-04T14:06:45;102541.41;;;7.47;100.00
52949;BME280;38812;50.942;3.644;2023-03-04T14:09:17;102553.78;;;7.56;100.00
52949;BME280;38812;50.942;3.644;2023-03-04T14:11:45;102552.06;;;7.56;100.00
52949;BME280;38812;50.942;3.644;2023-03-04T14:14:13;102542.50;;;7.60;100.00
52949;BME280;38812;50.942;3.644;2023-03-04T14:16:46;102549.66;;;7.69;100.00
52949;BME280;38812;50.942;3.644;2023-03-04T14:19:17;102537.41;;;7.68;100.00
52949;BME280;38812;50.942;3.644;2023-03-04T14:21:46;102532.03;;;7.60;100.00
52949;BME280;38812;50.942;3.644;2023-03-04T14:24:14;102548.03;;;7.75;100.00
52949;BME280;38812;50.942;3.644;2023-03-04T14:26:40;102535.09;;;7.84;100.00
52949;BME280;38812;50.942;3.644;2023-03-04T14:29:38;102538.63;;;7.88;100.00
52949;BME280;38812;50.942;3.644;2023-03-04T14:32:04;102521.88;;;7.75;100.00
52949;BME280;38812;50.942;3.644;2023-03-04T14:34:35;102536.16;;;7.96;100.00
52949;BME280;38812;50.942;3.644;2023-03-04T14:37:03;102525.00;;;8.07;100.00
52949;BME280;38812;50.942;3.644;2023-03-04T14:39:32;102527.75;;;8.15;100.00
52949;BME280;38812;50.942;3.644;2023-03-04T14:42:11;102522.31;;;8.04;100.00
52949;BME280;38812;50.942;3.644;2023-03-04T14:44:49;102521.69;;;8.17;100.00
52949;BME280;38812;50.942;3.644;2023-03-04T14:47:17;102520.03;;;8.22;100.00
52949;BME280;38812;50.942;3.644;2023-03-04T14:49:44;102514.69;;;8.16;100.00
52949;BME280;38812;50.942;3.644;2023-03-04T14:52:48;102519.19;;;8.26;100.00
52949;BME280;38812;50.942;3.644;2023-03-04T14:57:52;102520.50;;;7.99;100.00
52949;BME280;38812;50.942;3.644;2023-03-04T15:00:36;102501.00;;;7.81;100.00
52949;BME280;38812;50.942;3.644;2023-03-04T15:03:25;102513.22;;;7.79;100.00